Time;durP1;ratioP1;P1;durP2;ratioP2;P2;SDS_P1;SDS_P2;PMS_P1;PMS_P2;Temp;Humidity;BMP_temperature;BMP_pressure;BME280_temperature;BME280_humidity;BME280_pressure;Samples;Min_cycle;Max_cycle;Signal;HPM_P1;HPM_P2
2022/06/13 00:01:02;;;;;;;;;;;;;;;20.09;44.08;100607.91;4963848;28;98107;-60
2022/06/13 00:03:28;;;;;;;;;;;;;;;20.04;43.94;100608.88;4964642;28;127862;-60
2022/06/13 00:05:54;;;;;;;;;;;;;;;19.99;44.15;100598.09;4963048;28;128586;-66
2022/06/13 00:08:20;;;;;;;;;;;;;;;19.95;44.17;100599.09;4971072;28;108157;-60
2022/06/13 00:10:46;;;;;;;;;;;;;;;19.90;44.33;100589.13;4983230;27;116785;-66
2022/06/13 00:13:12;;;;;;;;;;;;;;;19.86;44.40;100588.97;4977121;28;100731;-60
2022/06/13 00:15:41;;;;;;;;;;;;;;;19.83;44.35;100588.81;4961538;28;129889;-60
2022/06/13 00:18:07;;;;;;;;;;;;;;;19.81;44.35;100591.91;4963054;28;126240;-66
2022/06/13 00:20:33;;;;;;;;;;;;;;;19.77;44.54;100587.41;4981294;28;115162;-66
2022/06/13 00:22:59;;;;;;;;;;;;;;;19.74;44.23;100599.00;4976577;27;99412;-66
2022/06/13 00:25:25;;;;;;;;;;;;;;;19.69;44.32;100589.03;4962666;28;121680;-60
2022/06/13 00:27:51;;;;;;;;;;;;;;;19.64;44.36;100593.88;4946054;28;125309;-67
2022/06/13 00:30:17;;;;;;;;;;;;;;;19.59;44.52;100597.53;4956920;28;116859;-60
2022/06/13 00:32:46;;;;;;;;;;;;;;;19.56;44.51;100598.97;4973369;27;127956;-61
2022/06/13 00:35:12;;;;;;;;;;;;;;;19.51;44.55;100601.91;4982480;27;123293;-66
2022/06/13 00:37:37;;;;;;;;;;;;;;;19.49;44.70;100595.97;4982716;27;126724;-60
2022/06/13 00:40:04;;;;;;;;;;;;;;;19.46;44.77;100598.53;4990165;27;115062;-66
2022/06/13 00:42:30;;;;;;;;;;;;;;;19.43;44.83;100599.19;4986648;28;115321;-66
2022/06/13 00:45:08;;;;;;;;;;;;;;;19.39;44.95;100596.28;4968724;28;128706;-66
2022/06/13 00:47:34;;;;;;;;;;;;;;;19.37;44.71;100601.25;4983398;28;98287;-66
2022/06/13 00:50:00;;;;;;;;;;;;;;;19.34;44.84;100596.47;4969622;28;114997;-67
2022/06/13 00:52:35;;;;;;;;;;;;;;;19.29;44.96;100591.94;4983540;27;127895;-66
2022/06/13 00:55:00;;;;;;;;;;;;;;;19.22;45.23;100588.91;4978678;27;99326;-66
2022/06/13 00:57:28;;;;;;;;;;;;;;;19.16;45.04;100587.47;4963898;28;128340;-60
2022/06/13 00:59:58;;;;;;;;;;;;;;;19.11;45.23;100584.91;4943763;28;98221;-67
2022/06/13 01:02:24;;;;;;;;;;;;;;;19.06;45.26;100585.03;4967064;28;117728;-67
2022/06/13 01:04:51;;;;;;;;;;;;;;;19.01;45.21;100587.94;4981492;28;119155;-66
2022/06/13 01:07:17;;;;;;;;;;;;;;;18.95;45.17;100583.78;4984056;28;98144;-60
2022/06/13 01:12:28;;;;;;;;;;;;;;;18.84;45.46;100573.16;4968508;28;98330;-66
2022/06/13 01:15:21;;;;;;;;;;;;;;;18.77;45.37;100574.75;4979790;28;116457;-61
2022/06/13 01:18:16;;;;;;;;;;;;;;;18.68;45.58;100579.38;4954061;28;98039;-60
2022/06/13 01:21:04;;;;;;;;;;;;;;;18.60;45.57;100581.75;4942845;28;97917;-63
2022/06/13 01:23:44;;;;;;;;;;;;;;;18.52;45.79;100584.47;4953001;28;98004;-67
2022/06/13 01:26:28;;;;;;;;;;;;;;;18.47;46.01;100584.59;4961386;28;98987;-67
2022/06/13 01:29:02;;;;;;;;;;;;;;;18.38;45.66;100576.41;4960513;28;98161;-67
2022/06/13 01:32:05;;;;;;;;;;;;;;;18.30;46.00;100571.72;4985812;28;97838;-60
2022/06/13 01:35:01;;;;;;;;;;;;;;;18.21;46.13;100558.06;4971417;27;98368;-60
2022/06/13 01:37:36;;;;;;;;;;;;;;;18.13;46.28;100567.81;4969554;28;98263;-61
2022/06/13 01:40:11;;;;;;;;;;;;;;;18.09;46.22;100576.94;4974668;28;126042;-60
2022/06/13 01:43:21;;;;;;;;;;;;;;;18.06;46.25;100578.38;4975347;28;97892;-67
2022/06/13 01:46:07;;;;;;;;;;;;;;;17.99;46.39;100575.28;4985643;28;98687;-60
2022/06/13 01:48:49;;;;;;;;;;;;;;;17.97;46.44;100563.13;4990438;27;98292;-61
2022/06/13 01:51:24;;;;;;;;;;;;;;;17.93;46.50;100559.41;4946747;28;125512;-67
2022/06/13 01:54:01;;;;;;;;;;;;;;;17.92;46.64;100558.59;4971583;28;109809;-61
2022/06/13 01:56:35;;;;;;;;;;;;;;;17.90;46.65;100553.44;4987712;27;98571;-60
2022/06/13 01:59:18;;;;;;;;;;;;;;;17.89;46.60;100556.50;4983231;28;117446;-61
2022/06/13 02:02:04;;;;;;;;;;;;;;;17.88;46.71;100543.97;4981821;27;127883;-67
2022/06/13 02:04:35;;;;;;;;;;;;;;;17.85;46.87;100558.25;4974072;28;97942;-67
2022/06/13 02:07:10;;;;;;;;;;;;;;;17.84;46.78;100564.78;4975633;28;99041;-67
2022/06/13 02:09:42;;;;;;;;;;;;;;;17.83;46.77;100576.81;4977000;28;127432;-67
2022/06/13 02:12:08;;;;;;;;;;;;;;;17.80;46.62;100577.44;4954388;28;98816;-67
2022/06/13 02:14:47;;;;;;;;;;;;;;;17.78;46.87;100579.69;4973991;28;117631;-61
2022/06/13 02:17:18;;;;;;;;;;;;;;;17.73;46.78;100569.69;4964917;28;98434;-61
2022/06/13 02:20:07;;;;;;;;;;;;;;;17.66;46.99;100561.16;4972685;28;98260;-61
2022/06/13 02:22:37;;;;;;;;;;;;;;;17.61;47.00;100567.56;4972248;27;98832;-61
2022/06/13 02:25:16;;;;;;;;;;;;;;;17.57;46.97;100565.75;4948707;28;98181;-61
2022/06/13 02:27:44;;;;;;;;;;;;;;;17.54;47.11;100569.91;4981776;28;98165;-67
2022/06/13 02:30:12;;;;;;;;;;;;;;;17.52;47.09;100572.13;4982934;28;98720;-67
2022/06/13 02:32:58;;;;;;;;;;;;;;;17.52;47.11;100569.41;4971446;28;109144;-67
2022/06/13 02:35:30;;;;;;;;;;;;;;;17.52;47.05;100571.31;4970950;28;106145;-67
2022/06/13 02:38:08;;;;;;;;;;;;;;;17.54;47.05;100578.09;4989531;28;115316;-68
2022/06/13 02:40:38;;;;;;;;;;;;;;;17.58;47.10;100589.16;4990833;27;98548;-67
2022/06/13 02:43:15;;;;;;;;;;;;;;;17.61;47.08;100597.53;4992026;28;104246;-67
2022/06/13 02:45:59;;;;;;;;;;;;;;;17.64;47.12;100605.09;4974299;28;98109;-61
2022/06/13 02:48:38;;;;;;;;;;;;;;;17.69;47.08;100614.25;4987700;27;127585;-67
2022/06/13 02:51:27;;;;;;;;;;;;;;;17.68;47.01;100597.06;4992261;28;124546;-67
2022/06/13 02:53:58;;;;;;;;;;;;;;;17.72;47.01;100603.50;4956706;28;98066;-67
2022/06/13 02:56:31;;;;;;;;;;;;;;;17.74;46.99;100605.94;4992219;22;117010;-66
2022/06/13 02:59:13;;;;;;;;;;;;;;;17.76;46.84;100609.97;4957603;28;98880;-66
2022/06/13 03:01:40;;;;;;;;;;;;;;;17.80;46.78;100613.72;4929534;28;127554;-66
2022/06/13 03:04:16;;;;;;;;;;;;;;;17.84;46.59;100611.13;4912263;28;124256;-66
2022/06/13 03:06:55;;;;;;;;;;;;;;;17.88;46.64;100609.41;4908251;28;97978;-66
2022/06/13 03:09:26;;;;;;;;;;;;;;;17.91;46.68;100600.59;4915837;28;122535;-66
2022/06/13 03:11:56;;;;;;;;;;;;;;;17.95;46.65;100589.88;4914539;28;120820;-66
2022/06/13 03:14:36;;;;;;;;;;;;;;;17.98;46.48;100600.97;4914255;28;98669;-67
2022/06/13 03:17:03;;;;;;;;;;;;;;;18.03;46.44;100602.75;4925600;28;115596;-66
2022/06/13 03:19:44;;;;;;;;;;;;;;;18.05;46.57;100606.78;4925301;28;98322;-67
2022/06/13 03:22:15;;;;;;;;;;;;;;;18.09;46.48;100615.13;4939116;28;98318;-66
2022/06/13 03:25:00;;;;;;;;;;;;;;;18.12;46.48;100622.69;4925173;28;97954;-61
2022/06/13 03:27:35;;;;;;;;;;;;;;;18.14;46.54;100629.44;4930107;28;97857;-67
2022/06/13 03:30:07;;;;;;;;;;;;;;;18.18;46.50;100631.53;4927029;28;126965;-66
2022/06/13 03:32:36;;;;;;;;;;;;;;;18.19;46.37;100633.94;4914020;28;99100;-66
2022/06/13 03:35:03;;;;;;;;;;;;;;;18.22;46.53;100636.03;4909595;28;126391;-66
2022/06/13 03:37:44;;;;;;;;;;;;;;;18.27;46.36;100640.56;4912494;28;110299;-67
2022/06/13 03:40:27;;;;;;;;;;;;;;;18.30;46.49;100637.19;4918067;28;98541;-67
2022/06/13 03:43:05;;;;;;;;;;;;;;;18.33;46.53;100631.13;4928272;28;126309;-66
2022/06/13 03:45:38;;;;;;;;;;;;;;;18.38;46.54;100636.44;4926925;28;98107;-66
2022/06/13 03:48:14;;;;;;;;;;;;;;;18.44;46.40;100637.91;4916256;28;101566;-66
2022/06/13 03:50:55;;;;;;;;;;;;;;;18.49;46.31;100640.50;4943634;28;113282;-60
2022/06/13 03:53:24;;;;;;;;;;;;;;;18.56;46.16;100645.50;4934043;28;114565;-68
2022/06/13 03:55:56;;;;;;;;;;;;;;;18.63;46.30;100651.31;4927435;28;119085;-66
2022/06/13 03:58:27;;;;;;;;;;;;;;;18.69;46.21;100649.22;4916477;28;97915;-66
2022/06/13 04:01:08;;;;;;;;;;;;;;;18.73;46.13;100653.75;4920346;28;116466;-66
2022/06/13 04:03:34;;;;;;;;;;;;;;;18.76;46.17;100653.13;4932130;28;101846;-66
2022/06/13 04:06:05;;;;;;;;;;;;;;;18.78;46.35;100650.06;4939497;28;98158;-66
2022/06/13 04:08:35;;;;;;;;;;;;;;;18.79;46.35;100659.88;4933314;28;110593;-66
2022/06/13 04:11:23;;;;;;;;;;;;;;;18.81;46.23;100671.28;4944132;28;98094;-61
2022/06/13 04:13:55;;;;;;;;;;;;;;;18.81;46.37;100665.81;4928170;28;97996;-66
2022/06/13 04:16:27;;;;;;;;;;;;;;;18.80;46.05;100670.47;4930528;28;126651;-66
2022/06/13 04:19:18;;;;;;;;;;;;;;;18.81;46.18;100669.34;4929887;28;98705;-66
2022/06/13 04:21:54;;;;;;;;;;;;;;;18.82;46.32;100670.16;4911747;28;126884;-66
2022/06/13 04:24:55;;;;;;;;;;;;;;;18.83;46.23;100669.84;4917879;28;119637;-63
2022/06/13 04:27:32;;;;;;;;;;;;;;;18.89;46.25;100674.03;4928509;28;103924;-67
2022/06/13 04:30:15;;;;;;;;;;;;;;;18.97;46.04;100677.09;4919449;28;97986;-66
2022/06/13 04:32:43;;;;;;;;;;;;;;;19.09;46.00;100685.47;4918786;28;99012;-66
2022/06/13 04:35:09;;;;;;;;;;;;;;;19.11;45.78;100677.78;4930772;28;105397;-66
2022/06/13 04:37:37;;;;;;;;;;;;;;;19.16;45.83;100677.63;4914123;28;128374;-67
2022/06/13 04:40:04;;;;;;;;;;;;;;;19.25;45.75;100683.06;4939979;28;111818;-67
2022/06/13 04:42:37;;;;;;;;;;;;;;;19.34;45.79;100683.91;4919130;28;99708;-67
2022/06/13 04:45:28;;;;;;;;;;;;;;;19.37;45.73;100688.72;4941864;28;122384;-64
2022/06/13 04:47:55;;;;;;;;;;;;;;;19.42;45.77;100685.03;4928535;28;98247;-61
2022/06/13 04:50:34;;;;;;;;;;;;;;;19.44;45.43;100677.31;4890325;28;117767;-68
2022/06/13 04:53:00;;;;;;;;;;;;;;;19.48;45.50;100687.28;4913350;28;98682;-60
2022/06/13 04:55:54;;;;;;;;;;;;;;;19.53;45.50;100689.03;4924971;28;113555;-67
2022/06/13 04:58:24;;;;;;;;;;;;;;;19.56;45.28;100691.94;4918252;28;98695;-61
2022/06/13 05:00:52;;;;;;;;;;;;;;;19.54;45.57;100688.72;4920628;28;98170;-61
2022/06/13 05:03:26;;;;;;;;;;;;;;;19.52;45.17;100671.03;4899385;28;126136;-61
2022/06/13 05:05:54;;;;;;;;;;;;;;;19.52;45.21;100677.31;4904294;28;103258;-61
2022/06/13 05:08:29;;;;;;;;;;;;;;;19.52;45.20;100673.75;4927662;28;99168;-67
2022/06/13 05:11:00;;;;;;;;;;;;;;;19.55;45.22;100679.41;4916746;28;115742;-61
2022/06/13 05:13:29;;;;;;;;;;;;;;;19.57;45.22;100679.91;4908336;28;119345;-61
2022/06/13 05:16:03;;;;;;;;;;;;;;;19.55;45.22;100684.06;4911217;28;124766;-61
2022/06/13 05:18:53;;;;;;;;;;;;;;;19.56;45.09;100680.19;4921228;28;123588;-61
2022/06/13 05:21:47;;;;;;;;;;;;;;;19.64;45.18;100675.88;4915494;28;97793;-62
2022/06/13 05:24:23;;;;;;;;;;;;;;;19.77;44.95;100680.38;4919619;28;98450;-67
2022/06/13 05:26:48;;;;;;;;;;;;;;;19.90;44.96;100679.41;4928329;28;98179;-61
2022/06/13 05:29:14;;;;;;;;;;;;;;;20.02;44.72;100684.19;4916557;28;127708;-61
2022/06/13 05:31:41;;;;;;;;;;;;;;;20.41;44.46;100687.78;4913659;28;116434;-61
2022/06/13 05:34:07;;;;;;;;;;;;;;;20.67;44.02;100690.41;4917138;28;128961;-61
2022/06/13 05:36:33;;;;;;;;;;;;;;;20.76;44.04;100689.25;4890255;28;127451;-60
2022/06/13 05:39:00;;;;;;;;;;;;;;;20.98;43.71;100692.84;4916447;28;117042;-67
2022/06/13 05:41:26;;;;;;;;;;;;;;;21.10;43.61;100698.38;4941565;28;98114;-67
2022/06/13 05:43:52;;;;;;;;;;;;;;;21.07;43.83;100690.84;4912088;28;117086;-61
2022/06/13 05:46:26;;;;;;;;;;;;;;;21.13;43.88;100691.44;4923903;28;128395;-67
2022/06/13 05:48:52;;;;;;;;;;;;;;;22.12;42.41;100688.81;4920474;28;108417;-61
2022/06/13 05:51:18;;;;;;;;;;;;;;;24.85;38.69;100690.91;4910615;28;97995;-61
2022/06/13 05:53:44;;;;;;;;;;;;;;;25.07;38.58;100683.09;4919745;28;128455;-61
2022/06/13 05:56:10;;;;;;;;;;;;;;;23.74;40.17;100695.53;4909945;28;128251;-61
2022/06/13 05:58:36;;;;;;;;;;;;;;;23.50;40.85;100699.94;4930969;28;122919;-60
2022/06/13 06:01:02;;;;;;;;;;;;;;;23.37;40.56;100714.06;4916995;28;105075;-61
2022/06/13 06:03:28;;;;;;;;;;;;;;;23.31;40.65;100712.72;4930021;28;126203;-61
2022/06/13 06:05:54;;;;;;;;;;;;;;;24.40;39.46;100713.41;4928234;28;125883;-61
2022/06/13 06:08:35;;;;;;;;;;;;;;;24.53;39.22;100717.69;4934378;28;98622;-65
2022/06/13 06:11:01;;;;;;;;;;;;;;;23.99;40.72;100708.00;4935499;28;98215;-66
2022/06/13 06:13:28;;;;;;;;;;;;;;;23.49;41.60;100694.78;4930038;28;98517;-61
2022/06/13 06:15:54;;;;;;;;;;;;;;;23.15;42.06;100680.44;4921617;28;107283;-66
2022/06/13 06:18:21;;;;;;;;;;;;;;;22.92;42.65;100690.31;4908618;28;113338;-61
2022/06/13 06:20:47;;;;;;;;;;;;;;;22.87;43.14;100718.00;4905701;28;106025;-67
2022/06/13 06:23:13;;;;;;;;;;;;;;;22.93;43.23;100731.19;4904392;28;128040;-67
2022/06/13 06:25:39;;;;;;;;;;;;;;;22.90;43.59;100723.59;4922943;28;102181;-66
2022/06/13 06:28:05;;;;;;;;;;;;;;;22.90;43.67;100722.81;4921251;28;105101;-66
2022/06/13 06:30:31;;;;;;;;;;;;;;;23.02;43.76;100722.81;4906274;28;117670;-67
2022/06/13 06:32:57;;;;;;;;;;;;;;;23.30;43.56;100725.63;4904487;28;98177;-66
2022/06/13 06:35:24;;;;;;;;;;;;;;;23.92;43.08;100723.53;4931315;28;107583;-61
2022/06/13 06:37:51;;;;;;;;;;;;;;;24.23;42.93;100725.53;4902710;28;106534;-66
2022/06/13 06:40:20;;;;;;;;;;;;;;;24.08;43.32;100738.13;4925666;28;98109;-66
2022/06/13 06:42:46;;;;;;;;;;;;;;;23.89;42.96;100743.47;4926681;28;98314;-66
2022/06/13 06:45:12;;;;;;;;;;;;;;;23.68;42.94;100749.19;4914538;28;128842;-65
2022/06/13 06:47:41;;;;;;;;;;;;;;;23.60;42.81;100750.09;4909354;28;98150;-67
2022/06/13 06:50:19;;;;;;;;;;;;;;;23.63;42.57;100747.47;4909729;28;97894;-66
2022/06/13 06:52:45;;;;;;;;;;;;;;;23.99;42.04;100756.75;4921906;28;111039;-66
2022/06/13 07:00:41;;;;;;;;;;;;;;;24.85;41.00;100740.50;4938789;28;98049;-61
2022/06/13 07:03:07;;;;;;;;;;;;;;;25.20;40.39;100746.09;4927331;28;128396;-66
2022/06/13 07:05:33;;;;;;;;;;;;;;;25.60;39.72;100747.72;4912582;28;126475;-61
2022/06/13 07:08:02;;;;;;;;;;;;;;;25.61;39.71;100757.59;4913123;28;127690;-61
2022/06/13 07:10:28;;;;;;;;;;;;;;;25.38;39.61;100751.19;4924492;28;115614;-66
2022/06/13 07:12:54;;;;;;;;;;;;;;;25.34;40.05;100761.34;4935631;28;119552;-66
2022/06/13 07:15:23;;;;;;;;;;;;;;;25.42;39.25;100761.13;4937351;28;126613;-61
2022/06/13 07:17:49;;;;;;;;;;;;;;;25.93;38.71;100771.28;4935296;28;107542;-67
2022/06/13 07:20:20;;;;;;;;;;;;;;;26.01;37.89;100772.22;4919905;28;97896;-66
2022/06/13 07:22:51;;;;;;;;;;;;;;;25.91;37.57;100774.44;4919563;28;97778;-66
2022/06/13 07:25:19;;;;;;;;;;;;;;;25.46;37.64;100775.81;4935642;28;98135;-61
2022/06/13 07:27:45;;;;;;;;;;;;;;;24.96;37.52;100780.16;4935723;28;98045;-67
2022/06/13 07:30:12;;;;;;;;;;;;;;;24.46;37.63;100773.41;4934801;28;117500;-67
2022/06/13 07:32:41;;;;;;;;;;;;;;;24.09;38.15;100781.03;4935538;28;98295;-67
2022/06/13 07:35:08;;;;;;;;;;;;;;;23.80;39.03;100773.13;4928480;28;98025;-68
2022/06/13 07:40:18;;;;;;;;;;;;;;;23.24;38.93;100774.56;4924881;28;97957;-69
2022/06/13 07:42:49;;;;;;;;;;;;;;;23.11;39.14;100778.50;4941452;28;127995;-61
2022/06/13 07:45:18;;;;;;;;;;;;;;;22.93;39.34;100775.16;4922646;28;125993;-67
2022/06/13 07:47:44;;;;;;;;;;;;;;;22.70;39.78;100782.22;4934017;28;98330;-67
2022/06/13 07:50:14;;;;;;;;;;;;;;;22.49;39.89;100788.59;4914380;28;98267;-67
2022/06/13 07:52:43;;;;;;;;;;;;;;;22.33;40.05;100784.09;4917168;28;98863;-61
2022/06/13 07:55:09;;;;;;;;;;;;;;;22.18;39.97;100780.84;4923650;28;125389;-68
2022/06/13 07:57:35;;;;;;;;;;;;;;;22.09;39.97;100773.81;4913889;28;125872;-67
2022/06/13 08:00:02;;;;;;;;;;;;;;;22.10;40.03;100780.91;4932580;28;113599;-68
2022/06/13 08:02:31;;;;;;;;;;;;;;;22.24;39.92;100773.19;4907702;28;99195;-61
2022/06/13 08:04:57;;;;;;;;;;;;;;;22.28;39.94;100766.69;4927162;28;98680;-60
2022/06/13 08:07:23;;;;;;;;;;;;;;;22.42;39.93;100765.56;4903992;28;127021;-60
2022/06/13 08:09:52;;;;;;;;;;;;;;;22.86;39.23;100760.34;4904029;28;116465;-63
2022/06/13 08:12:18;;;;;;;;;;;;;;;23.37;38.47;100756.09;4907452;28;125598;-61
2022/06/13 08:14:47;;;;;;;;;;;;;;;24.05;37.85;100758.13;4927183;28;114239;-67
2022/06/13 08:17:18;;;;;;;;;;;;;;;24.51;37.35;100753.03;4926921;28;98032;-67
2022/06/13 08:19:44;;;;;;;;;;;;;;;25.25;36.08;100745.00;4925840;28;98633;-61
2022/06/13 08:22:10;;;;;;;;;;;;;;;26.54;34.93;100755.88;4908980;28;127346;-68
2022/06/13 08:24:36;;;;;;;;;;;;;;;27.48;33.99;100751.41;4924461;28;98162;-67
2022/06/13 08:27:03;;;;;;;;;;;;;;;28.11;33.47;100767.22;4935571;28;98443;-67
2022/06/13 08:29:29;;;;;;;;;;;;;;;28.44;32.80;100762.03;4927845;28;98009;-61
2022/06/13 08:31:55;;;;;;;;;;;;;;;28.07;32.69;100773.91;4924860;28;127779;-68
2022/06/13 08:34:21;;;;;;;;;;;;;;;28.56;31.98;100770.06;4928712;28;125037;-67
2022/06/13 08:36:49;;;;;;;;;;;;;;;28.62;31.30;100760.22;4925356;28;116774;-67
2022/06/13 08:39:21;;;;;;;;;;;;;;;28.24;31.69;100762.22;4928984;28;97909;-68
2022/06/13 08:42:03;;;;;;;;;;;;;;;27.91;31.78;100762.25;4928729;28;125172;-67
2022/06/13 08:44:43;;;;;;;;;;;;;;;27.52;31.39;100768.88;4936922;28;98269;-67
2022/06/13 08:47:27;;;;;;;;;;;;;;;26.98;32.24;100772.00;4915178;28;98155;-61
2022/06/13 08:50:28;;;;;;;;;;;;;;;26.53;32.82;100774.44;4914436;28;97765;-61
2022/06/13 08:53:19;;;;;;;;;;;;;;;26.00;33.16;100776.97;4927909;28;99183;-62
2022/06/13 08:55:59;;;;;;;;;;;;;;;25.61;33.27;100781.66;4933492;28;98342;-67
2022/06/13 08:58:31;;;;;;;;;;;;;;;25.32;33.50;100783.78;4905855;28;126795;-67
2022/06/13 09:01:09;;;;;;;;;;;;;;;25.16;33.64;100785.78;4925170;28;97911;-61
2022/06/13 09:03:38;;;;;;;;;;;;;;;25.36;33.36;100792.94;4912723;28;125987;-61
2022/06/13 09:06:18;;;;;;;;;;;;;;;25.31;32.96;100790.47;4941953;28;98707;-67
2022/06/13 09:08:53;;;;;;;;;;;;;;;25.17;32.84;100787.38;4923310;28;97954;-61
2022/06/13 09:11:29;;;;;;;;;;;;;;;25.11;33.27;100803.41;4932677;28;98065;-61
2022/06/13 09:14:10;;;;;;;;;;;;;;;25.00;32.81;100809.78;4931331;28;126052;-67
2022/06/13 09:16:36;;;;;;;;;;;;;;;25.01;33.00;100797.59;4929209;28;101449;-61
2022/06/13 09:19:20;;;;;;;;;;;;;;;25.16;32.75;100805.09;4920250;28;98478;-67
2022/06/13 09:21:53;;;;;;;;;;;;;;;25.61;32.26;100800.97;4912017;28;116857;-61
2022/06/13 09:24:49;;;;;;;;;;;;;;;25.67;32.60;100796.78;4920083;28;110502;-68
2022/06/13 09:27:20;;;;;;;;;;;;;;;26.42;31.54;100804.59;4921924;28;98963;-67
2022/06/13 09:30:08;;;;;;;;;;;;;;;26.42;32.02;100806.56;4913576;28;98402;-61
2022/06/13 09:32:41;;;;;;;;;;;;;;;26.59;31.38;100810.84;4920201;28;114216;-67
2022/06/13 09:35:13;;;;;;;;;;;;;;;26.57;31.38;100800.16;4917607;28;98422;-60
2022/06/13 09:37:44;;;;;;;;;;;;;;;26.42;31.08;100804.59;4918192;28;98461;-61
2022/06/13 09:40:11;;;;;;;;;;;;;;;26.27;30.83;100799.19;4942966;28;98163;-68
2022/06/13 09:43:03;;;;;;;;;;;;;;;26.18;31.12;100802.19;4928579;28;97820;-68
2022/06/13 09:45:52;;;;;;;;;;;;;;;26.35;31.06;100806.44;4907122;28;126027;-67
2022/06/13 09:48:41;;;;;;;;;;;;;;;27.91;29.53;100801.03;4907398;28;122416;-67
2022/06/13 09:51:07;;;;;;;;;;;;;;;27.65;29.41;100797.09;4927516;28;98397;-68
2022/06/13 09:53:33;;;;;;;;;;;;;;;27.57;29.45;100812.03;4945772;28;97623;-68
2022/06/13 09:56:19;;;;;;;;;;;;;;;27.47;29.11;100815.44;4936485;28;98423;-61
2022/06/13 09:59:19;;;;;;;;;;;;;;;28.21;28.65;100798.19;4919733;28;121334;-70
2022/06/13 10:01:58;;;;;;;;;;;;;;;29.36;27.94;100800.81;4927122;28;97939;-66
2022/06/13 10:05:03;;;;;;;;;;;;;;;29.33;27.92;100805.16;4905324;28;113239;-61
2022/06/13 10:08:04;;;;;;;;;;;;;;;30.08;26.93;100804.75;4906235;28;98451;-61
2022/06/13 10:10:42;;;;;;;;;;;;;;;31.19;26.19;100797.31;4902734;28;118922;-69
2022/06/13 10:13:15;;;;;;;;;;;;;;;31.47;26.13;100793.69;4914094;28;97842;-68
2022/06/13 10:16:05;;;;;;;;;;;;;;;31.22;26.20;100787.38;4913007;28;97971;-61
2022/06/13 10:18:55;;;;;;;;;;;;;;;31.30;25.65;100777.84;4910546;28;98410;-61
2022/06/13 10:21:29;;;;;;;;;;;;;;;31.36;25.87;100784.59;4924768;28;124852;-67
2022/06/13 10:24:18;;;;;;;;;;;;;;;32.88;24.46;100786.94;4911740;28;98118;-61
2022/06/13 10:27:04;;;;;;;;;;;;;;;32.37;24.53;100782.94;4925231;28;98137;-69
2022/06/13 10:29:46;;;;;;;;;;;;;;;34.41;23.48;100770.38;4937250;28;99019;-68
2022/06/13 10:32:19;;;;;;;;;;;;;;;34.64;23.60;100777.25;4914298;28;123459;-61
2022/06/13 10:35:02;;;;;;;;;;;;;;;36.38;22.13;100778.56;4903860;28;102336;-68
2022/06/13 10:37:51;;;;;;;;;;;;;;;38.50;20.50;100770.69;4905122;28;97817;-68
2022/06/13 10:40:17;;;;;;;;;;;;;;;39.60;19.75;100779.31;4912597;28;111710;-62
2022/06/13 10:42:43;;;;;;;;;;;;;;;39.34;20.02;100775.84;4913478;28;128255;-62
2022/06/13 10:45:11;;;;;;;;;;;;;;;39.25;20.00;100768.13;4906998;28;98216;-68
2022/06/13 10:47:39;;;;;;;;;;;;;;;40.54;18.80;100763.91;4915420;28;97932;-68
2022/06/13 10:50:17;;;;;;;;;;;;;;;40.52;18.85;100766.44;4921812;28;98541;-61
2022/06/13 10:52:45;;;;;;;;;;;;;;;40.10;18.66;100757.66;4911726;28;98468;-68
2022/06/13 10:55:12;;;;;;;;;;;;;;;41.25;18.19;100757.22;4905361;28;98057;-68
2022/06/13 10:57:41;;;;;;;;;;;;;;;41.70;17.86;100741.47;4921337;28;98087;-61
2022/06/13 11:00:15;;;;;;;;;;;;;;;42.49;17.65;100748.97;4919982;28;99133;-62
2022/06/13 11:02:41;;;;;;;;;;;;;;;43.07;17.28;100739.88;4912119;28;98193;-68
2022/06/13 11:05:19;;;;;;;;;;;;;;;43.73;16.41;100743.63;4902958;28;97912;-63
2022/06/13 11:08:01;;;;;;;;;;;;;;;42.48;16.76;100730.41;4904202;28;98173;-69
2022/06/13 11:10:34;;;;;;;;;;;;;;;41.63;17.12;100728.44;4925182;28;112800;-62
2022/06/13 11:13:00;;;;;;;;;;;;;;;40.69;17.41;100722.53;4909341;28;120489;-62
2022/06/13 11:24:35;;;;;;;;;;;;;;;38.74;18.40;100728.84;4909316;28;97885;-69
2022/06/13 11:29:47;;;;;;;;;;;;;;;36.33;19.29;100714.59;4918584;28;98159;-69
2022/06/13 11:32:21;;;;;;;;;;;;;;;36.43;19.32;100706.31;4914904;28;98770;-62
2022/06/13 11:34:47;;;;;;;;;;;;;;;36.48;19.16;100708.66;4923788;28;98268;-69
2022/06/13 11:37:12;;;;;;;;;;;;;;;36.45;20.43;100704.66;4919603;28;100552;-62
2022/06/13 11:39:42;;;;;;;;;;;;;;;35.33;21.19;100708.41;4921635;28;97887;-62
2022/06/13 11:42:29;;;;;;;;;;;;;;;34.57;22.11;100705.41;4908714;28;108803;-61
2022/06/13 11:45:00;;;;;;;;;;;;;;;33.92;21.63;100711.19;4919859;28;99116;-61
2022/06/13 11:47:26;;;;;;;;;;;;;;;33.32;21.90;100720.31;4920124;28;97928;-66
2022/06/13 11:49:56;;;;;;;;;;;;;;;32.89;22.49;100720.75;4918605;28;112038;-66
2022/06/13 11:55:29;;;;;;;;;;;;;;;31.56;23.40;100726.47;4914283;28;98320;-61
2022/06/13 11:57:59;;;;;;;;;;;;;;;31.07;23.95;100736.53;4902201;28;97950;-66
2022/06/13 12:00:28;;;;;;;;;;;;;;;30.73;24.22;100725.00;4921745;28;97699;-66
2022/06/13 12:03:04;;;;;;;;;;;;;;;31.02;23.67;100723.81;4919289;28;98751;-66
2022/06/13 12:05:34;;;;;;;;;;;;;;;31.65;23.32;100729.59;4905907;28;99666;-66
2022/06/13 12:08:16;;;;;;;;;;;;;;;32.21;22.88;100738.06;4901414;28;119829;-66
2022/06/13 12:11:06;;;;;;;;;;;;;;;32.10;23.14;100731.75;4902583;28;115908;-66
2022/06/13 12:13:34;;;;;;;;;;;;;;;34.08;21.62;100735.75;4913327;28;98607;-61
2022/06/13 12:16:19;;;;;;;;;;;;;;;35.11;21.14;100744.44;4920201;28;99272;-66
2022/06/13 12:18:51;;;;;;;;;;;;;;;35.36;20.60;100738.31;4918012;28;98084;-61
2022/06/13 12:21:46;;;;;;;;;;;;;;;35.58;20.69;100741.53;4920001;28;98575;-61
2022/06/13 12:24:34;;;;;;;;;;;;;;;35.43;20.62;100715.00;4900418;28;98599;-67
2022/06/13 12:27:23;;;;;;;;;;;;;;;35.11;21.39;100722.03;4909816;28;108939;-67
2022/06/13 12:30:01;;;;;;;;;;;;;;;35.77;20.73;100711.88;4913234;28;98326;-61
2022/06/13 12:32:33;;;;;;;;;;;;;;;35.76;20.68;100718.69;4908131;28;97902;-62
2022/06/13 12:35:08;;;;;;;;;;;;;;;36.25;20.27;100707.56;4900425;28;126071;-67
2022/06/13 12:37:47;;;;;;;;;;;;;;;36.55;19.90;100716.88;4915350;28;98519;-67
2022/06/13 12:40:20;;;;;;;;;;;;;;;36.40;20.32;100715.66;4915061;28;98238;-62
2022/06/13 12:43:12;;;;;;;;;;;;;;;36.19;20.36;100708.53;4908745;28;98418;-61
2022/06/13 12:46:17;;;;;;;;;;;;;;;36.72;20.03;100717.66;4918201;28;127714;-68
2022/06/13 12:49:06;;;;;;;;;;;;;;;36.77;20.23;100703.84;4912524;28;98336;-67
2022/06/13 12:51:39;;;;;;;;;;;;;;;36.78;19.82;100699.81;4911500;28;125841;-61
2022/06/13 12:54:29;;;;;;;;;;;;;;;36.55;19.90;100714.06;4917005;28;97795;-67
2022/06/13 12:57:03;;;;;;;;;;;;;;;35.60;20.60;100716.63;4921153;28;98304;-62
2022/06/13 12:59:29;;;;;;;;;;;;;;;36.33;19.98;100708.97;4900179;28;98923;-67
2022/06/13 13:02:20;;;;;;;;;;;;;;;35.41;20.50;100707.03;4902045;28;98007;-67
2022/06/13 13:05:11;;;;;;;;;;;;;;;35.46;20.46;100724.56;4931097;28;115099;-67
2022/06/13 13:07:59;;;;;;;;;;;;;;;33.92;21.61;100718.78;4931716;28;115939;-62
2022/06/13 13:10:45;;;;;;;;;;;;;;;32.72;22.41;100709.38;4908252;28;98320;-65
2022/06/13 13:13:32;;;;;;;;;;;;;;;31.75;22.89;100720.41;4910178;28;98984;-61
2022/06/13 13:16:03;;;;;;;;;;;;;;;31.12;23.65;100718.59;4901852;28;98171;-66
2022/06/13 13:18:44;;;;;;;;;;;;;;;31.84;23.01;100722.75;4921460;28;97921;-68
2022/06/13 13:21:31;;;;;;;;;;;;;;;31.68;22.97;100725.22;4921263;28;98834;-61
2022/06/13 13:24:18;;;;;;;;;;;;;;;30.88;23.45;100732.16;4904916;28;112684;-67
2022/06/13 13:26:53;;;;;;;;;;;;;;;30.52;23.35;100726.59;4909724;28;98163;-67
2022/06/13 13:29:28;;;;;;;;;;;;;;;30.17;23.66;100726.59;4906896;28;98289;-61
2022/06/13 13:32:32;;;;;;;;;;;;;;;30.97;23.29;100735.34;4897201;28;98396;-61
2022/06/13 13:35:21;;;;;;;;;;;;;;;31.36;23.17;100742.84;4914895;28;97960;-67